This is the latest recevied weather packets stored in our database for station/object WI5KEY. If no packets are shown the sender has not sent any weather packets the latest 10 day(s).
| Time | Temp. | Humidity | Pressure | Rain* | Wind** | Luminosity | Snow |
|---|---|---|---|---|---|---|---|
| 1777839340 | 26.67° C | 44% | 1020.3 hPa | 0 mm | - | - | - |
| 1777838439 | 27.22° C | 46% | 1020.6 hPa | 0 mm | - | - | - |
| 1777837537 | 26.67° C | 44% | 1020.7 hPa | 0 mm | - | - | - |
| 1777836644 | 26.67° C | 44% | 1021 hPa | 0 mm | - | - | - |
| 1777835731 | 26.11° C | 44% | 1021.1 hPa | 0 mm | - | - | - |
| 1777834829 | 26.11° C | 45% | 1021.4 hPa | 0 mm | - | - | - |
| 1777833936 | 26.11° C | 47% | 1021.6 hPa | 0 mm | - | - | - |
| 1777833024 | 26.11° C | 46% | 1021.8 hPa | 0 mm | - | - | - |
| 1777832123 | 25.56° C | 48% | 1022.2 hPa | 0 mm | - | - | - |
| 1777831225 | 25.56° C | 48% | 1022.6 hPa | 0 mm | - | - | - |
| 1777830321 | 25.56° C | 47% | 1022.9 hPa | 0 mm | - | - | - |
| 1777829418 | 25° C | 47% | 1023.2 hPa | 0 mm | - | - | - |
| 1777828517 | 25° C | 47% | 1023.3 hPa | 0 mm | - | - | - |
| 1777827616 | 25° C | 47% | 1023.3 hPa | 0 mm | - | - | - |
| 1777826716 | 25° C | 49% | 1023.7 hPa | 0 mm | - | - | - |
| 1777825812 | 24.44° C | 52% | 1023.7 hPa | 0 mm | - | - | - |
| 1777824920 | 23.89° C | 52% | 1023.8 hPa | 0 mm | - | - | - |
| 1777824008 | 23.89° C | 57% | 1024 hPa | 0 mm | - | - | - |
| 1777823107 | 23.33° C | 57% | 1024 hPa | 0 mm | - | - | - |
| 1777822205 | 23.33° C | 59% | 1024 hPa | 0 mm | - | - | - |
| 1777821359 | 22.22° C | 64% | 1023.9 hPa | 0 mm | - | - | - |
| 1777820460 | 21.67° C | 68% | 1023.9 hPa | 0 mm | - | - | - |
| 1777819550 | 20.56° C | 76% | 1023.8 hPa | 0 mm | - | - | - |
| 1777818645 | 18.89° C | 84% | 1023.6 hPa | 0 mm | - | - | - |
| 1777817744 | 17.78° C | 91% | 1023.7 hPa | 0 mm | - | - | - |
* Rain latest hour (hover to see other rain measurements)
** Current wind speed in m/s (hover to see current wind gust speed)